ESUP

Pajala Airport

Sweden
METAR ESUP 180650Z AUTO 11003KT 5000 -SN SCT034/// M11/M12 Q1023
Observed Flight Rules
Feb-18 @ 06:50 UTC (24 minutes ago) Marginal Visual Flight Rules
Wind Visibility Clouds Conditions
110° at 3 knots 5,005 meters
  • Scattered at 3,400' AGL
  • Light Snow
Temperatures Readings
Current -11°C / 12°F
Dewpoint -12°C / 10°F
Humidity 92%
Altimeter 30.21" Hg
Pressure 1023 hPa
Elevation 165
METAR ESUP 180650Z AUTO 11003KT 5000 -SN SCT034/// M11/M12 Q1023
Observed Flight Rules
Feb-18 @ 06:50 UTC
(24 minutes ago)
MVFR
Wind Visibility
110° at 3 knots 5,005 meters
Clouds
  • Scattered at 3,400' AGL
Conditions
  • Light Snow
Temperature Dewpoint
-11°C / 12°F -12°C / 10°F
Humidity Altimeter Pressure
92% 30.21" Hg 1023 hPa